Time;durP1;ratioP1;P1;durP2;ratioP2;P2;SDS_P1;SDS_P2;PMS_P1;PMS_P2;Temp;Humidity;BMP_temperature;BMP_pressure;BME280_temperature;BME280_humidity;BME280_pressure;Samples;Min_cycle;Max_cycle;Signal;HPM_P1;HPM_P2
2023/08/24 00:01:15;;;;;;;4.00;2.40;;;;;;;16.10;100.00;100211.09;105980;1262;72505;-67
2023/08/24 00:03:43;;;;;;;4.90;2.40;;;;;;;16.06;100.00;100211.13;105868;1258;61227;-64
2023/08/24 00:06:10;;;;;;;6.00;3.00;;;;;;;16.01;100.00;100214.36;105510;1259;61098;-64
2023/08/24 00:08:37;;;;;;;5.90;2.50;;;;;;;15.95;100.00;100213.86;105451;1260;74566;-63
2023/08/24 00:11:05;;;;;;;4.50;2.70;;;;;;;15.90;100.00;100218.81;105576;1260;65294;-64
2023/08/24 00:13:32;;;;;;;5.10;2.70;;;;;;;15.84;100.00;100215.27;105528;1260;71345;-66
2023/08/24 00:15:59;;;;;;;4.40;2.50;;;;;;;15.77;100.00;100215.61;105434;1257;62294;-63
2023/08/24 00:18:26;;;;;;;4.30;2.40;;;;;;;15.72;100.00;100215.34;105539;1258;61188;-65
2023/08/24 00:20:53;;;;;;;4.30;2.70;;;;;;;15.66;100.00;100218.08;105906;1257;73453;-63
2023/08/24 00:23:20;;;;;;;5.80;2.70;;;;;;;15.62;100.00;100220.54;105523;1257;65960;-62
2023/08/24 00:25:47;;;;;;;3.90;2.10;;;;;;;15.58;100.00;100218.73;105886;1260;72627;-64
2023/08/24 00:28:14;;;;;;;4.70;2.40;;;;;;;15.53;100.00;100217.74;105493;1257;61209;-62
2023/08/24 00:30:41;;;;;;;4.90;2.50;;;;;;;15.53;100.00;100214.27;105493;1256;61242;-64
2023/08/24 00:33:08;;;;;;;4.50;2.20;;;;;;;15.55;100.00;100223.75;105518;1260;73396;-64
2023/08/24 00:35:35;;;;;;;5.40;2.40;;;;;;;15.57;100.00;100219.13;105435;1257;66410;-65
2023/08/24 00:38:03;;;;;;;4.50;2.60;;;;;;;15.58;100.00;100213.91;105661;1256;75032;-66
2023/08/24 00:40:30;;;;;;;4.30;2.10;;;;;;;15.59;100.00;100214.50;105520;1260;61347;-63
2023/08/24 00:42:57;;;;;;;4.80;2.70;;;;;;;15.58;100.00;100210.56;105393;1260;61262;-64
2023/08/24 00:45:24;;;;;;;4.40;2.20;;;;;;;15.59;100.00;100210.98;105601;1260;73120;-64
2023/08/24 00:47:51;;;;;;;5.70;2.20;;;;;;;15.61;100.00;100213.40;105695;1259;66203;-65
2023/08/24 00:50:19;;;;;;;4.40;2.70;;;;;;;15.62;100.00;100216.21;105282;1260;73328;-65
2023/08/24 00:52:46;;;;;;;4.30;2.60;;;;;;;15.63;100.00;100217.30;105724;1259;61221;-63
2023/08/24 00:55:13;;;;;;;5.50;2.70;;;;;;;15.62;100.00;100222.21;106102;1257;61338;-64
2023/08/24 00:57:41;;;;;;;7.40;2.50;;;;;;;15.61;100.00;100218.66;105457;1260;74674;-62
2023/08/24 01:00:12;;;;;;;5.60;2.20;;;;;;;15.61;100.00;100219.35;105318;1258;68840;-63
2023/08/24 01:02:40;;;;;;;5.90;2.80;;;;;;;15.61;100.00;100222.10;105489;1259;72734;-62
2023/08/24 01:05:07;;;;;;;4.80;2.20;;;;;;;15.62;100.00;100224.48;105546;1257;61290;-62
2023/08/24 01:07:36;;;;;;;5.00;2.40;;;;;;;15.62;100.00;100230.09;105377;1257;61199;-62
2023/08/24 01:10:04;;;;;;;6.60;2.80;;;;;;;15.62;100.00;100234.78;105376;1258;75310;-63
2023/08/24 01:12:37;;;;;;;5.00;2.60;;;;;;;15.63;100.00;100236.48;105574;1257;65888;-63
2023/08/24 01:15:27;;;;;;;3.90;2.30;;;;;;;15.61;100.00;100241.58;105508;1261;71418;-62
2023/08/24 01:17:56;;;;;;;5.40;2.80;;;;;;;15.60;100.00;100243.16;105127;1262;61073;-65
2023/08/24 01:20:23;;;;;;;6.00;3.40;;;;;;;15.57;100.00;100247.84;105653;1260;60215;-62
2023/08/24 01:23:09;;;;;;;7.30;3.10;;;;;;;15.54;100.00;100240.58;105210;1257;73579;-63
2023/08/24 01:25:46;;;;;;;4.80;2.70;;;;;;;15.51;100.00;100237.38;105332;1261;66001;-62
2023/08/24 01:28:13;;;;;;;8.60;2.60;;;;;;;15.48;100.00;100239.70;105261;1259;72163;-62
2023/08/24 01:30:40;;;;;;;5.90;3.00;;;;;;;15.47;100.00;100241.14;105330;1257;61176;-62
2023/08/24 01:33:11;;;;;;;5.40;2.60;;;;;;;15.45;100.00;100243.70;105526;1258;61116;-64
2023/08/24 01:35:39;;;;;;;5.20;2.90;;;;;;;15.39;100.00;100244.14;105488;1260;75067;-61
2023/08/24 01:38:06;;;;;;;4.80;2.40;;;;;;;15.33;100.00;100244.23;105407;1257;67178;-60
2023/08/24 01:40:57;;;;;;;4.90;2.30;;;;;;;15.28;100.00;100247.91;105460;1258;73220;-61
2023/08/24 01:43:27;;;;;;;5.50;2.40;;;;;;;15.24;100.00;100243.10;105957;1261;60832;-64
2023/08/24 01:46:08;;;;;;;9.30;2.80;;;;;;;15.19;100.00;100250.55;105511;1256;61239;-61
2023/08/24 01:48:35;;;;;;;3.90;2.30;;;;;;;15.16;100.00;100253.79;105603;1257;72517;-61
2023/08/24 01:51:02;;;;;;;6.20;2.80;;;;;;;15.15;100.00;100250.05;105605;1259;66480;-64
2023/08/24 01:53:31;;;;;;;10.00;2.90;;;;;;;15.14;100.00;100254.52;105323;1259;72360;-63
2023/08/24 01:55:58;;;;;;;5.10;2.60;;;;;;;15.12;100.00;100255.34;105559;1259;61317;-63
2023/08/24 01:58:25;;;;;;;6.60;3.00;;;;;;;15.08;100.00;100254.52;105962;1257;61321;-63
2023/08/24 02:00:52;;;;;;;6.50;3.40;;;;;;;15.07;100.00;100254.88;105836;1257;74322;-64
2023/08/24 02:03:20;;;;;;;4.00;2.50;;;;;;;15.05;100.00;100257.77;105697;1260;66627;-63
2023/08/24 02:05:47;;;;;;;5.00;3.20;;;;;;;15.03;100.00;100257.00;105581;1268;72719;-63
2023/08/24 02:08:14;;;;;;;7.50;3.30;;;;;;;15.01;100.00;100256.83;105561;1260;61879;-63
2023/08/24 02:10:41;;;;;;;7.30;3.90;;;;;;;14.99;100.00;100260.91;105574;1257;61236;-63
2023/08/24 02:13:08;;;;;;;5.50;3.20;;;;;;;14.99;100.00;100265.64;105841;1260;74514;-66
2023/08/24 02:15:37;;;;;;;6.10;3.80;;;;;;;14.96;100.00;100265.17;105607;1257;65933;-65
2023/08/24 02:18:05;;;;;;;9.00;4.00;;;;;;;14.84;100.00;100265.08;105753;1257;72684;-63
2023/08/24 02:20:36;;;;;;;7.80;3.60;;;;;;;14.65;100.00;100264.29;105542;1257;61331;-64
2023/08/24 02:23:04;;;;;;;11.00;3.50;;;;;;;14.45;100.00;100268.27;105754;1256;61382;-63
2023/08/24 02:25:31;;;;;;;10.00;3.30;;;;;;;14.24;100.00;100275.03;105409;1257;74594;-63
2023/08/24 02:27:59;;;;;;;7.10;3.20;;;;;;;14.06;100.00;100274.77;105133;1257;67211;-63
2023/08/24 02:30:26;;;;;;;6.50;3.80;;;;;;;13.88;100.00;100280.84;105576;1257;72404;-64
2023/08/24 02:32:53;;;;;;;6.40;4.10;;;;;;;13.71;100.00;100285.17;105739;1260;61678;-65
2023/08/24 02:35:21;;;;;;;8.10;3.20;;;;;;;13.57;100.00;100288.27;105382;1258;61289;-63
2023/08/24 02:37:49;;;;;;;9.30;3.90;;;;;;;13.43;100.00;100291.29;105523;1260;74743;-64
2023/08/24 02:40:17;;;;;;;7.70;3.50;;;;;;;13.32;100.00;100300.35;105733;1256;65781;-64
2023/08/24 02:42:45;;;;;;;11.10;3.50;;;;;;;13.24;100.00;100304.52;105547;1260;72698;-64
2023/08/24 02:45:12;;;;;;;6.10;3.60;;;;;;;13.19;100.00;100313.02;105450;1256;61283;-62
2023/08/24 02:47:39;;;;;;;6.80;3.30;;;;;;;13.15;100.00;100319.17;105447;1257;61366;-64
2023/08/24 02:50:07;;;;;;;6.10;3.40;;;;;;;13.11;100.00;100321.88;105516;1255;74671;-63
2023/08/24 02:52:35;;;;;;;6.70;3.50;;;;;;;13.09;100.00;100327.01;105389;1260;64823;-64
2023/08/24 02:55:03;;;;;;;6.00;3.10;;;;;;;13.09;100.00;100328.30;105222;1262;71697;-64
2023/08/24 02:57:30;;;;;;;4.80;3.10;;;;;;;13.10;100.00;100330.09;105337;1257;61216;-63
2023/08/24 02:59:57;;;;;;;8.70;3.80;;;;;;;13.11;100.00;100331.86;105613;1256;61580;-63
2023/08/24 03:02:24;;;;;;;8.50;3.90;;;;;;;13.13;100.00;100336.48;105673;1260;74716;-64
2023/08/24 03:04:51;;;;;;;7.40;3.60;;;;;;;13.16;100.00;100341.71;105448;1260;66775;-62
2023/08/24 03:07:18;;;;;;;5.10;3.70;;;;;;;13.18;100.00;100341.24;105638;1260;72639;-63
2023/08/24 03:09:45;;;;;;;8.40;3.60;;;;;;;13.21;100.00;100344.88;105628;1261;61946;-62
2023/08/24 03:12:12;;;;;;;5.00;3.30;;;;;;;13.25;100.00;100343.30;105541;1255;61228;-62
2023/08/24 03:14:39;;;;;;;6.80;3.30;;;;;;;13.30;100.00;100343.52;105752;1259;75090;-65
2023/08/24 03:17:08;;;;;;;7.00;3.20;;;;;;;13.37;100.00;100346.35;105414;1256;67121;-62
2023/08/24 03:19:35;;;;;;;6.10;3.60;;;;;;;13.45;100.00;100352.37;105499;1260;72570;-62
2023/08/24 03:22:02;;;;;;;6.40;3.70;;;;;;;13.53;100.00;100354.35;105278;1256;61453;-63
2023/08/24 03:24:30;;;;;;;6.20;3.20;;;;;;;13.63;100.00;100359.88;105777;1257;61309;-66
2023/08/24 03:26:57;;;;;;;5.80;3.10;;;;;;;13.75;100.00;100361.95;105212;1256;74446;-63
2023/08/24 03:29:24;;;;;;;4.80;2.90;;;;;;;13.89;100.00;100361.75;105498;1256;67181;-66
2023/08/24 03:31:53;;;;;;;6.30;3.10;;;;;;;14.09;100.00;100361.13;105738;1257;72755;-64
2023/08/24 03:34:20;;;;;;;6.30;3.10;;;;;;;14.37;100.00;100358.51;105440;1261;61316;-66
2023/08/24 03:36:48;;;;;;;4.80;3.00;;;;;;;14.85;100.00;100360.41;105607;1256;61226;-62
2023/08/24 03:39:15;;;;;;;5.50;2.80;;;;;;;15.71;100.00;100355.83;105330;1256;73116;-63
2023/08/24 03:41:43;;;;;;;6.10;3.00;;;;;;;16.77;100.00;100349.70;105760;1258;65960;-65
2023/08/24 03:44:10;;;;;;;4.80;2.50;;;;;;;17.90;100.00;100341.23;105436;1255;71395;-66
2023/08/24 03:46:38;;;;;;;5.00;3.00;;;;;;;18.98;100.00;100325.39;105522;1256;61210;-60
2023/08/24 03:49:05;;;;;;;4.00;2.70;;;;;;;20.02;100.00;100306.56;105591;1257;61280;-60
2023/08/24 03:51:32;;;;;;;5.40;3.10;;;;;;;21.03;100.00;100295.66;105534;1259;74560;-62
2023/08/24 03:53:59;;;;;;;5.70;3.30;;;;;;;22.05;100.00;100288.69;105646;1260;66071;-65
2023/08/24 03:56:26;;;;;;;7.40;3.70;;;;;;;23.04;100.00;100281.52;105431;1256;73149;-63
2023/08/24 03:58:53;;;;;;;5.40;3.20;;;;;;;23.92;100.00;100276.03;105321;1256;61227;-62
2023/08/24 04:01:22;;;;;;;6.20;3.60;;;;;;;24.62;100.00;100278.73;105596;1255;61257;-62
2023/08/24 04:03:49;;;;;;;4.20;3.20;;;;;;;25.19;100.00;100278.62;105770;1255;74652;-62
2023/08/24 04:06:17;;;;;;;4.90;2.90;;;;;;;25.70;100.00;100279.61;105561;1261;65810;-64
2023/08/24 04:08:45;;;;;;;5.80;3.40;;;;;;;26.29;100.00;100277.56;105399;1260;71740;-63
2023/08/24 04:11:12;;;;;;;5.00;3.10;;;;;;;26.81;100.00;100284.73;105749;1257;61268;-62
2023/08/24 04:13:39;;;;;;;4.70;3.00;;;;;;;27.25;99.68;100285.06;105440;1256;61271;-64
2023/08/24 04:16:06;;;;;;;5.00;3.20;;;;;;;27.66;96.70;100283.55;105351;1256;73497;-64
2023/08/24 04:18:34;;;;;;;4.60;2.80;;;;;;;28.21;89.50;100284.81;105703;1256;66129;-65
2023/08/24 04:21:01;;;;;;;6.10;3.20;;;;;;;28.74;80.66;100283.52;105476;1255;71601;-65
2023/08/24 04:23:28;;;;;;;6.30;3.10;;;;;;;29.25;72.61;100280.33;105724;1256;61311;-64
2023/08/24 04:25:55;;;;;;;4.20;2.90;;;;;;;29.77;66.60;100280.95;105588;1255;61282;-61
2023/08/24 04:28:23;;;;;;;7.40;3.50;;;;;;;30.25;60.69;100283.23;105848;1256;73602;-65
2023/08/24 04:30:53;;;;;;;7.10;2.90;;;;;;;30.65;56.80;100285.67;105389;1261;67764;-62
2023/08/24 04:33:20;;;;;;;;;;;;;;;31.17;54.28;100288.95;105679;1255;71490;-62
2023/08/24 04:35:48;;;;;;;5.10;2.80;;;;;;;31.74;51.83;100287.64;105543;1256;61326;-63
2023/08/24 04:38:15;;;;;;;4.40;2.70;;;;;;;32.32;47.83;100284.70;105663;1255;60855;-63
2023/08/24 04:40:50;;;;;;;8.20;4.30;;;;;;;32.78;45.42;100288.19;105777;1257;73539;-65
2023/08/24 04:43:18;;;;;;;5.60;3.50;;;;;;;33.20;42.65;100285.52;105534;1260;66039;-62
2023/08/24 04:45:49;;;;;;;6.10;3.80;;;;;;;33.49;40.37;100280.59;105834;1256;73196;-64
2023/08/24 04:48:16;;;;;;;7.00;3.40;;;;;;;33.68;39.54;100284.15;105578;1256;61320;-63
2023/08/24 04:50:44;;;;;;;8.60;3.60;;;;;;;33.78;38.20;100280.29;105504;1256;61280;-65
2023/08/24 04:53:14;;;;;;;3.80;2.80;;;;;;;33.80;38.09;100280.97;105558;1260;74679;-62
2023/08/24 04:55:42;;;;;;;6.60;3.70;;;;;;;33.99;37.73;100283.19;105532;1255;67644;-63
2023/08/24 04:58:09;;;;;;;6.10;3.40;;;;;;;34.39;37.10;100285.79;105517;1256;72994;-66
2023/08/24 05:00:36;;;;;;;6.10;3.10;;;;;;;34.80;36.22;100288.04;105608;1260;61251;-63
2023/08/24 05:03:04;;;;;;;6.40;3.50;;;;;;;35.15;35.38;100286.49;106149;1255;61218;-63
2023/08/24 05:05:32;;;;;;;6.60;4.50;;;;;;;35.48;34.55;100285.26;105819;1255;73914;-62
2023/08/24 05:08:00;;;;;;;7.10;3.90;;;;;;;35.70;33.71;100279.45;105650;1256;61296;-62
2023/08/24 05:10:30;;;;;;;8.00;5.40;;;;;;;35.82;33.11;100281.26;105689;1255;64669;-64
2023/08/24 05:12:57;;;;;;;7.20;5.90;;;;;;;36.01;32.97;100280.30;105573;1257;61374;-63
2023/08/24 05:15:24;;;;;;;7.50;5.30;;;;;;;36.34;32.66;100283.02;105615;1255;61273;-62
2023/08/24 05:17:55;;;;;;;6.60;5.40;;;;;;;36.74;32.43;100277.23;105641;1255;66446;-62
2023/08/24 05:20:22;;;;;;;6.20;5.00;;;;;;;37.12;31.47;100277.77;105715;1255;61431;-65
2023/08/24 05:22:49;;;;;;;6.40;5.00;;;;;;;37.34;30.63;100277.25;105654;1256;64789;-62
2023/08/24 05:25:17;;;;;;;6.80;5.00;;;;;;;37.45;30.35;100276.81;105631;1260;61312;-63
2023/08/24 05:27:44;;;;;;;6.40;4.40;;;;;;;37.58;30.15;100278.19;105744;1256;61258;-62
2023/08/24 05:30:12;;;;;;;5.40;3.60;;;;;;;37.69;29.73;100280.61;106065;1256;66562;-65
2023/08/24 05:32:39;;;;;;;4.80;3.20;;;;;;;37.59;29.72;100279.44;105666;1256;61329;-63
2023/08/24 05:35:07;;;;;;;6.30;3.30;;;;;;;37.32;29.65;100280.63;105752;1257;64137;-62
2023/08/24 05:37:34;;;;;;;4.30;3.20;;;;;;;37.09;30.04;100281.31;105808;1260;61369;-62
2023/08/24 05:40:02;;;;;;;13.20;3.70;;;;;;;36.90;30.37;100279.40;105664;1260;59870;-62
2023/08/24 05:42:31;;;;;;;;;;;;;;;36.74;30.45;100275.63;105665;1260;66166;-66
2023/08/24 05:44:58;;;;;;;3.60;2.90;;;;;;;36.54;30.53;100276.08;105371;1256;61221;-63
2023/08/24 05:47:26;;;;;;;4.30;2.60;;;;;;;36.41;30.94;100276.66;105662;1255;64015;-62
2023/08/24 05:49:53;;;;;;;6.50;3.00;;;;;;;36.46;31.18;100270.96;105474;1255;61363;-62
2023/08/24 05:52:20;;;;;;;4.40;2.90;;;;;;;36.54;31.08;100270.20;105946;1255;61241;-65
2023/08/24 05:54:46;;;;;;;7.70;3.20;;;;;;;36.72;30.90;100268.90;106123;1255;65688;-64
2023/08/24 05:57:13;;;;;;;4.70;2.50;;;;;;;36.87;30.23;100265.76;105644;1260;61344;-62
2023/08/24 05:59:40;;;;;;;4.90;2.60;;;;;;;36.80;29.87;100263.55;105544;1260;62784;-63
2023/08/24 06:02:07;;;;;;;3.80;2.30;;;;;;;36.71;29.99;100262.98;105542;1256;61348;-63
2023/08/24 06:04:34;;;;;;;3.40;2.30;;;;;;;36.75;30.22;100265.63;105999;1255;61165;-66
2023/08/24 06:07:02;;;;;;;3.40;2.20;;;;;;;36.88;30.04;100266.95;105744;1260;66962;-62
2023/08/24 06:09:29;;;;;;;6.50;2.90;;;;;;;36.86;29.91;100268.23;105644;1256;61258;-62
2023/08/24 06:11:57;;;;;;;4.10;2.40;;;;;;;36.72;30.03;100269.75;105549;1260;64070;-62
2023/08/24 06:14:24;;;;;;;3.90;2.30;;;;;;;36.67;30.36;100269.50;105539;1256;61408;-62
2023/08/24 06:16:53;;;;;;;4.20;2.50;;;;;;;36.75;29.91;100268.41;105850;1256;61249;-65
2023/08/24 06:19:20;;;;;;;3.10;1.90;;;;;;;36.82;29.77;100268.77;105527;1255;66091;-62
2023/08/24 06:21:47;;;;;;;3.50;2.10;;;;;;;36.87;29.66;100274.70;105601;1256;61162;-63
2023/08/24 06:24:14;;;;;;;5.80;2.20;;;;;;;36.92;29.28;100272.85;105606;1256;62848;-61
2023/08/24 06:26:41;;;;;;;5.00;2.40;;;;;;;37.09;29.55;100272.70;106007;1256;59683;-64
2023/08/24 06:29:08;;;;;;;4.20;1.80;;;;;;;37.35;29.15;100265.36;105510;1255;61156;-64
2023/08/24 06:31:35;;;;;;;4.90;1.90;;;;;;;37.43;28.58;100261.25;105475;1256;64946;-61
2023/08/24 06:34:02;;;;;;;4.50;1.70;;;;;;;37.40;28.54;100261.79;105547;1255;61274;-61
2023/08/24 06:36:29;;;;;;;3.10;2.00;;;;;;;37.43;28.25;100261.48;105695;1256;64746;-64
2023/08/24 06:38:56;;;;;;;3.80;1.80;;;;;;;37.46;28.09;100260.21;105674;1255;61301;-63
2023/08/24 06:41:23;;;;;;;2.90;1.80;;;;;;;37.66;27.92;100265.63;105830;1255;61144;-63
2023/08/24 06:43:50;;;;;;;2.90;1.90;;;;;;;37.93;26.98;100259.44;105610;1259;66049;-63
2023/08/24 06:46:19;;;;;;;2.50;1.80;;;;;;;38.08;26.51;100253.42;105632;1256;61231;-62
2023/08/24 06:48:46;;;;;;;3.60;2.20;;;;;;;38.14;26.03;100255.74;105629;1257;62747;-62
2023/08/24 06:51:13;;;;;;;3.50;1.90;;;;;;;38.17;25.36;100254.45;105906;1256;61152;-62
2023/08/24 06:53:42;;;;;;;3.90;1.80;;;;;;;38.09;25.46;100254.36;105708;1256;61421;-63
2023/08/24 06:56:09;;;;;;;4.20;2.20;;;;;;;38.09;25.99;100253.73;105437;1255;66260;-63
2023/08/24 06:58:36;;;;;;;2.40;1.40;;;;;;;38.25;25.15;100252.30;105348;1260;59722;-64
2023/08/24 07:01:06;;;;;;;4.40;1.90;;;;;;;38.17;24.36;100252.90;105813;1256;64859;-63
2023/08/24 07:03:33;;;;;;;2.10;1.50;;;;;;;37.80;24.88;100257.30;105548;1255;61218;-63
2023/08/24 07:06:00;;;;;;;10.60;2.20;;;;;;;37.64;25.34;100257.91;105533;1255;61144;-62
2023/08/24 07:08:28;;;;;;;2.60;1.40;;;;;;;37.62;24.88;100261.85;105540;1256;64825;-63
2023/08/24 07:10:54;;;;;;;4.50;1.50;;;;;;;37.62;24.61;100259.20;105915;1256;61587;-65
2023/08/24 07:13:21;;;;;;;2.70;1.70;;;;;;;37.48;24.25;100258.91;105640;1260;64564;-64
2023/08/24 07:15:49;;;;;;;3.10;1.60;;;;;;;37.25;24.13;100259.22;105559;1260;61253;-62
2023/08/24 07:18:16;;;;;;;2.60;1.50;;;;;;;37.05;24.28;100259.67;105620;1256;61194;-62
2023/08/24 07:20:44;;;;;;;2.20;1.40;;;;;;;37.04;24.80;100259.48;105588;1256;65545;-63
2023/08/24 07:23:11;;;;;;;1.80;1.30;;;;;;;37.30;25.00;100257.77;105991;1259;61106;-64
2023/08/24 07:25:38;;;;;;;2.10;1.30;;;;;;;37.66;24.21;100258.17;105337;1256;64361;-63
2023/08/24 07:28:05;;;;;;;2.50;1.10;;;;;;;37.66;23.46;100255.98;105513;1256;61253;-62
2023/08/24 07:30:33;;;;;;;2.40;1.30;;;;;;;36.99;23.52;100254.33;105501;1256;61360;-62
2023/08/24 07:33:03;;;;;;;2.20;1.10;;;;;;;36.24;24.30;100259.88;105728;1255;74764;-65
2023/08/24 07:35:30;;;;;;;3.10;1.30;;;;;;;36.10;24.98;100260.20;105250;1259;67210;-63
2023/08/24 07:37:57;;;;;;;3.10;1.40;;;;;;;36.13;25.01;100257.84;105577;1256;63954;-63
2023/08/24 07:40:24;;;;;;;3.10;1.20;;;;;;;36.18;25.16;100257.19;105638;1257;61336;-62
2023/08/24 07:42:55;;;;;;;1.80;0.90;;;;;;;36.29;24.67;100248.17;105734;1256;61282;-63
2023/08/24 07:45:25;;;;;;;1.70;0.80;;;;;;;36.29;24.32;100246.33;106070;1255;66082;-66
2023/08/24 07:47:53;;;;;;;1.60;1.10;;;;;;;36.22;24.59;100241.90;105445;1256;59663;-65
2023/08/24 07:50:22;;;;;;;2.00;1.00;;;;;;;36.12;24.50;100242.86;105636;1256;64084;-63
2023/08/24 07:52:49;;;;;;;2.10;0.90;;;;;;;36.07;24.63;100247.25;105765;1259;61159;-63
2023/08/24 07:55:16;;;;;;;2.50;1.00;;;;;;;36.24;24.42;100248.15;105465;1256;61264;-65
2023/08/24 07:57:43;;;;;;;2.60;0.90;;;;;;;36.42;23.26;100244.02;105506;1256;67004;-61
2023/08/24 08:00:13;;;;;;;3.30;1.20;;;;;;;36.33;23.24;100241.36;105429;1256;61249;-61
2023/08/24 08:02:40;;;;;;;3.80;1.10;;;;;;;36.16;23.16;100243.17;105462;1260;63933;-62
2023/08/24 08:05:10;;;;;;;2.10;1.10;;;;;;;36.21;22.91;100246.69;106018;1256;61228;-65
2023/08/24 08:07:37;;;;;;;4.50;1.00;;;;;;;36.27;22.71;100244.96;105654;1255;61244;-65
2023/08/24 08:10:05;;;;;;;2.00;1.00;;;;;;;36.20;22.85;100246.38;105570;1259;66045;-63
2023/08/24 08:12:33;;;;;;;2.10;1.10;;;;;;;36.19;23.15;100247.13;105591;1255;61233;-65
2023/08/24 08:15:00;;;;;;;2.00;0.90;;;;;;;36.27;22.86;100241.63;105946;1256;62914;-66
2023/08/24 08:17:32;;;;;;;1.80;1.00;;;;;;;36.17;22.93;100241.34;105438;1260;61370;-63
2023/08/24 08:19:59;;;;;;;2.20;1.00;;;;;;;36.25;22.91;100237.10;105573;1260;61223;-63
2023/08/24 08:22:26;;;;;;;2.10;1.00;;;;;;;36.40;22.44;100235.21;105480;1256;64870;-64
2023/08/24 08:24:54;;;;;;;2.10;1.10;;;;;;;36.40;22.64;100235.54;105784;1259;61359;-64
2023/08/24 08:27:21;;;;;;;3.10;1.10;;;;;;;36.47;22.74;100236.77;105885;1256;64132;-62
2023/08/24 08:29:50;;;;;;;1.90;1.10;;;;;;;36.53;23.18;100237.75;105636;1271;62150;-65
2023/08/24 08:32:17;;;;;;;1.90;1.10;;;;;;;36.51;23.22;100231.95;105660;1256;61890;-63
2023/08/24 08:34:44;;;;;;;2.90;1.10;;;;;;;36.38;23.23;100232.69;105951;1255;64664;-65
2023/08/24 08:37:11;;;;;;;2.70;1.10;;;;;;;36.23;23.43;100226.65;105591;1256;61205;-65
2023/08/24 08:39:38;;;;;;;3.40;1.20;;;;;;;36.07;23.37;100233.61;105847;1255;62887;-65
2023/08/24 08:42:10;;;;;;;1.80;1.10;;;;;;;35.92;23.38;100231.95;105597;1256;61271;-65
2023/08/24 08:44:37;;;;;;;5.20;1.30;;;;;;;35.70;23.31;100234.41;105485;1260;61218;-63
2023/08/24 08:47:06;;;;;;;3.50;1.30;;;;;;;35.38;24.08;100233.12;105777;1255;66159;-64
2023/08/24 08:49:35;;;;;;;1.60;1.00;;;;;;;35.23;24.20;100232.29;105230;1261;65725;-62
2023/08/24 08:52:03;;;;;;;2.50;1.10;;;;;;;35.27;24.37;100231.13;105591;1256;64129;-65
2023/08/24 08:54:32;;;;;;;2.40;1.10;;;;;;;35.56;23.98;100228.67;105448;1256;61401;-64
2023/08/24 08:57:00;;;;;;;2.50;1.20;;;;;;;35.87;24.19;100224.56;106265;1256;61119;-64
2023/08/24 08:59:30;;;;;;;3.10;1.30;;;;;;;36.05;24.34;100222.73;105716;1255;66109;-64
2023/08/24 09:02:00;;;;;;;2.90;1.40;;;;;;;36.14;23.77;100222.66;105423;1255;61338;-65
2023/08/24 09:04:29;;;;;;;;;;;;;;;35.94;23.59;100225.81;105555;1256;63562;-64
2023/08/24 09:06:57;;;;;;;1.60;1.00;;;;;;;35.67;23.99;100224.58;105739;1256;61318;-63
2023/08/24 09:09:25;;;;;;;2.80;1.40;;;;;;;35.30;24.31;100231.67;105875;1259;61234;-65
2023/08/24 09:11:52;;;;;;;2.60;1.40;;;;;;;34.78;24.76;100233.88;105495;1256;73403;-66
2023/08/24 09:14:19;;;;;;;2.90;1.70;;;;;;;34.44;25.27;100233.73;105341;1256;67164;-64
2023/08/24 09:16:46;;;;;;;2.40;1.40;;;;;;;34.40;25.67;100232.15;105425;1257;268724;-62
2023/08/24 09:19:13;;;;;;;3.30;1.60;;;;;;;34.59;25.51;100231.98;105795;1255;61332;-66
2023/08/24 09:21:41;;;;;;;2.40;1.40;;;;;;;34.72;25.85;100232.73;105476;1260;61237;-62
2023/08/24 09:24:09;;;;;;;2.50;1.30;;;;;;;34.89;25.43;100223.81;105500;1256;73460;-62
2023/08/24 09:26:42;;;;;;;1.70;1.10;;;;;;;35.04;25.32;100222.30;105353;1256;61253;-63
2023/08/24 09:29:13;;;;;;;2.40;1.50;;;;;;;35.15;25.21;100225.73;105774;1260;64047;-64
2023/08/24 09:31:40;;;;;;;3.30;1.40;;;;;;;35.33;25.09;100224.86;105594;1260;61298;-63
2023/08/24 09:34:07;;;;;;;3.80;1.20;;;;;;;35.54;24.86;100219.88;105625;1260;61265;-62
2023/08/24 09:36:35;;;;;;;2.40;1.30;;;;;;;35.77;24.80;100219.30;105599;1255;65563;-62
2023/08/24 09:39:06;;;;;;;3.40;1.90;;;;;;;35.98;24.46;100219.33;105811;1256;61338;-65
2023/08/24 09:41:40;;;;;;;1.90;1.20;;;;;;;36.13;24.46;100214.27;105544;1256;64720;-63
2023/08/24 09:44:11;;;;;;;2.50;1.30;;;;;;;36.41;23.94;100211.42;105673;1256;61359;-61
2023/08/24 09:46:43;;;;;;;1.80;1.30;;;;;;;36.70;23.56;100214.70;105590;1255;61165;-63
2023/08/24 09:49:11;;;;;;;2.70;1.30;;;;;;;36.75;23.08;100217.27;105503;1259;75761;-63
2023/08/24 09:51:39;;;;;;;4.80;1.80;;;;;;;36.72;22.92;100209.92;105438;1260;61333;-62
2023/08/24 09:54:11;;;;;;;2.40;1.40;;;;;;;36.69;23.26;100210.12;105530;1255;62646;-63
2023/08/24 09:56:39;;;;;;;2.70;1.60;;;;;;;36.84;23.20;100207.51;105524;1260;61164;-65
2023/08/24 09:59:17;;;;;;;2.10;1.50;;;;;;;37.12;22.79;100210.55;105368;1260;61331;-63
2023/08/24 10:01:47;;;;;;;2.70;1.40;;;;;;;37.27;22.21;100210.64;105401;1260;65893;-62
2023/08/24 10:04:17;;;;;;;2.70;1.50;;;;;;;37.06;22.04;100206.80;105555;1260;61221;-63
2023/08/24 10:06:44;;;;;;;2.80;1.30;;;;;;;36.80;22.39;100201.60;105593;1260;62901;-65
2023/08/24 10:09:14;;;;;;;2.30;1.50;;;;;;;36.63;22.31;100205.65;105521;1260;61271;-63
2023/08/24 10:11:45;;;;;;;3.20;1.30;;;;;;;36.21;22.30;100200.09;105531;1255;61240;-63
2023/08/24 10:14:16;;;;;;;2.20;1.10;;;;;;;35.89;22.59;100195.71;105418;1256;65071;-63
2023/08/24 10:16:43;;;;;;;2.40;1.50;;;;;;;35.86;22.91;100197.88;105187;1256;61376;-63
2023/08/24 10:19:10;;;;;;;4.70;1.30;;;;;;;35.97;22.87;100193.17;105627;1256;62668;-60
2023/08/24 10:21:37;;;;;;;2.30;1.20;;;;;;;35.99;22.04;100195.48;105842;1256;61325;-60
2023/08/24 10:24:05;;;;;;;2.90;1.50;;;;;;;35.93;22.30;100195.17;105758;1256;61360;-61
2023/08/24 10:26:33;;;;;;;6.90;1.70;;;;;;;35.93;22.59;100197.17;105702;1256;66056;-64
2023/08/24 10:29:01;;;;;;;3.30;1.70;;;;;;;35.97;22.26;100190.84;105234;1261;61152;-61
2023/08/24 10:31:28;;;;;;;5.70;1.40;;;;;;;35.96;22.53;100187.54;105358;1257;73294;-61
2023/08/24 10:33:56;;;;;;;3.30;1.40;;;;;;;35.95;22.67;100187.53;105458;1260;61249;-62
2023/08/24 10:36:23;;;;;;;2.40;1.40;;;;;;;35.90;22.72;100188.66;105485;1258;61230;-61
2023/08/24 10:38:50;;;;;;;2.10;1.40;;;;;;;35.63;22.58;100193.58;105584;1261;65250;-64
2023/08/24 10:41:17;;;;;;;3.10;1.40;;;;;;;35.12;22.95;100188.11;105895;1259;61314;-61
2023/08/24 10:43:51;;;;;;;4.60;1.60;;;;;;;34.53;23.16;100188.89;105532;1256;63959;-61
2023/08/24 10:46:18;;;;;;;3.20;1.80;;;;;;;33.98;23.69;100183.16;105443;1255;61225;-64
2023/08/24 10:48:45;;;;;;;3.50;1.50;;;;;;;33.75;24.59;100181.63;105751;1257;61222;-64
2023/08/24 10:51:21;;;;;;;2.80;1.80;;;;;;;33.75;24.45;100181.48;105500;1256;75319;-63
2023/08/24 10:53:52;;;;;;;2.80;1.50;;;;;;;33.77;24.47;100182.79;105624;1256;61248;-62
2023/08/24 10:56:19;;;;;;;3.70;1.90;;;;;;;33.96;24.65;100182.27;105970;1255;64784;-63
2023/08/24 10:58:47;;;;;;;3.40;2.20;;;;;;;34.09;24.74;100177.55;105421;1260;59632;-62
2023/08/24 11:01:16;;;;;;;4.00;1.60;;;;;;;34.19;24.81;100175.28;105645;1259;61143;-62
2023/08/24 11:03:49;;;;;;;3.30;1.60;;;;;;;34.34;24.81;100176.77;106008;1256;64649;-61
2023/08/24 11:06:20;;;;;;;4.00;1.40;;;;;;;34.49;23.90;100175.89;105817;1256;61448;-63
2023/08/24 11:08:48;;;;;;;2.50;1.70;;;;;;;34.63;23.86;100173.95;105501;1261;71534;-62
2023/08/24 11:11:21;;;;;;;4.30;1.60;;;;;;;34.80;23.92;100174.05;105459;1261;61328;-61
2023/08/24 11:14:26;;;;;;;3.90;1.40;;;;;;;35.02;23.38;100174.27;105515;1256;61281;-60
2023/08/24 11:16:54;;;;;;;2.60;1.50;;;;;;;35.01;22.81;100171.67;105703;1256;65078;-62
2023/08/24 11:19:21;;;;;;;2.30;1.40;;;;;;;34.82;22.51;100168.55;105179;1256;61151;-61